createdAt,value
2023-09-30T00:01:25.939Z,11.38
2023-09-30T00:03:53.269Z,14.45
2023-09-30T00:06:20.545Z,15.32
2023-09-30T00:08:47.950Z,10.38
2023-09-30T00:11:18.485Z,11.40
2023-09-30T00:13:46.881Z,11.77
2023-09-30T00:16:14.117Z,10.40
2023-09-30T00:18:41.458Z,11.38
2023-09-30T00:21:08.879Z,10.80
2023-09-30T00:23:35.989Z,10.80
2023-09-30T00:26:03.353Z,9.07
2023-09-30T00:28:30.546Z,5.05
2023-09-30T00:30:57.927Z,9.93
2023-09-30T00:33:26.429Z,5.90
2023-09-30T00:35:53.692Z,5.28
2023-09-30T00:38:20.896Z,12.15
2023-09-30T00:40:49.464Z,4.93
2023-09-30T00:43:20.945Z,7.00
2023-09-30T00:46:19.199Z,6.13
2023-09-30T00:48:46.571Z,5.18
2023-09-30T00:51:13.862Z,4.60
2023-09-30T00:53:42.427Z,3.55
2023-09-30T00:56:11.754Z,2.67
2023-09-30T00:58:39.396Z,4.80
2023-09-30T01:01:07.481Z,1.98
2023-09-30T01:03:35.684Z,1.58
2023-09-30T01:06:02.997Z,2.85
2023-09-30T01:08:30.172Z,3.90
2023-09-30T01:10:57.677Z,5.28
2023-09-30T01:13:32.436Z,4.55
2023-09-30T01:15:59.530Z,3.92
2023-09-30T01:18:26.841Z,4.00
2023-09-30T01:23:21.865Z,5.22
2023-09-30T01:25:50.701Z,3.33
2023-09-30T01:28:17.797Z,5.05
2023-09-30T01:30:46.429Z,4.40
2023-09-30T01:33:13.681Z,7.35
2023-09-30T01:35:40.870Z,4.72
2023-09-30T01:38:08.345Z,4.57
2023-09-30T01:40:36.069Z,4.97
2023-09-30T01:43:03.301Z,5.85
2023-09-30T01:45:30.724Z,5.55
2023-09-30T01:47:58.708Z,3.67
2023-09-30T01:50:25.788Z,5.38
2023-09-30T01:52:53.135Z,6.30
2023-09-30T01:55:20.227Z,4.18
2023-09-30T01:57:47.412Z,4.50
2023-09-30T02:00:14.742Z,6.60
2023-09-30T02:02:43.400Z,6.07
2023-09-30T02:05:10.647Z,5.55
2023-09-30T02:07:39.297Z,5.72
2023-09-30T02:10:07.178Z,7.75
2023-09-30T02:15:01.476Z,3.78
2023-09-30T02:17:28.619Z,4.75
2023-09-30T02:19:56.096Z,9.35
2023-09-30T02:22:24.626Z,8.05
2023-09-30T02:24:52.287Z,6.15
2023-09-30T02:27:19.383Z,7.45
2023-09-30T02:29:46.577Z,11.25
2023-09-30T02:32:15.241Z,5.78
2023-09-30T02:34:45.516Z,7.15
2023-09-30T02:37:12.652Z,9.68
2023-09-30T02:39:39.843Z,6.20
2023-09-30T02:42:07.253Z,10.80
2023-09-30T02:44:34.830Z,9.73
2023-09-30T02:47:02.018Z,7.22
2023-09-30T02:49:29.082Z,8.38
2023-09-30T02:51:56.139Z,5.60
2023-09-30T02:54:23.298Z,8.98
2023-09-30T02:56:50.445Z,7.13
2023-09-30T02:59:18.239Z,12.68
2023-09-30T03:01:45.798Z,9.70
2023-09-30T03:04:13.890Z,7.43
2023-09-30T03:06:41.141Z,12.07
2023-09-30T03:09:10.605Z,8.88
2023-09-30T03:11:37.768Z,14.80
2023-09-30T03:14:04.868Z,9.07
2023-09-30T03:16:33.354Z,10.48
2023-09-30T03:19:00.480Z,11.43
2023-09-30T03:21:27.692Z,12.93
2023-09-30T03:23:54.930Z,9.40
2023-09-30T03:26:22.130Z,11.95
2023-09-30T03:28:51.002Z,11.05
2023-09-30T03:31:22.040Z,9.00
2023-09-30T03:33:52.183Z,6.88
2023-09-30T03:36:19.922Z,7.95
2023-09-30T03:38:47.235Z,12.63
2023-09-30T03:41:14.480Z,8.27
2023-09-30T03:43:42.423Z,9.50
2023-09-30T03:48:43.325Z,14.60
2023-09-30T03:51:15.001Z,8.02
2023-09-30T03:53:43.566Z,14.35
2023-09-30T03:56:14.446Z,8.30
2023-09-30T03:58:43.986Z,18.45
2023-09-30T04:01:14.649Z,10.77
2023-09-30T04:03:44.729Z,15.77
2023-09-30T04:06:13.206Z,15.40
2023-09-30T04:08:40.460Z,14.05
2023-09-30T04:11:07.695Z,9.77
2023-09-30T04:13:34.822Z,11.57
2023-09-30T04:16:02.016Z,18.42
2023-09-30T04:18:29.612Z,9.77
2023-09-30T04:20:56.808Z,14.63
2023-09-30T04:23:24.021Z,15.07
2023-09-30T04:25:51.123Z,14.85
2023-09-30T04:28:21.766Z,18.00
2023-09-30T04:30:52.317Z,11.95
2023-09-30T04:33:20.686Z,14.00
2023-09-30T04:35:48.146Z,12.07
2023-09-30T04:38:15.222Z,8.13
2023-09-30T04:40:44.844Z,14.60
2023-09-30T04:43:12.071Z,13.95
2023-09-30T04:45:39.226Z,18.95
2023-09-30T04:48:06.553Z,13.98
2023-09-30T04:50:33.638Z,14.85
2023-09-30T04:53:00.806Z,15.63
2023-09-30T04:55:27.902Z,14.18
2023-09-30T04:57:55.000Z,13.88
2023-09-30T05:00:29.315Z,20.23
2023-09-30T05:02:57.465Z,16.90
2023-09-30T05:05:24.648Z,13.63
2023-09-30T05:07:51.773Z,12.07
2023-09-30T05:10:20.243Z,20.20
2023-09-30T05:12:47.996Z,16.27
2023-09-30T05:15:17.281Z,17.08
2023-09-30T05:17:45.563Z,11.52
2023-09-30T05:20:13.809Z,17.45
2023-09-30T05:22:46.647Z,14.95
2023-09-30T05:25:18.244Z,16.67
2023-09-30T05:27:46.126Z,16.83
2023-09-30T05:30:16.278Z,13.90
2023-09-30T05:32:43.801Z,17.23
2023-09-30T05:35:14.453Z,17.95
2023-09-30T05:37:43.123Z,15.75
2023-09-30T05:40:30.947Z,14.90
2023-09-30T05:42:59.822Z,14.63
2023-09-30T05:45:36.889Z,13.00
2023-09-30T05:48:07.066Z,21.10
2023-09-30T05:50:37.802Z,9.05
2023-09-30T05:53:10.368Z,17.63
2023-09-30T05:55:38.094Z,15.30
2023-09-30T05:58:06.555Z,13.40
2023-09-30T06:00:36.558Z,9.27
2023-09-30T06:03:07.515Z,14.10
2023-09-30T06:05:35.117Z,11.43
2023-09-30T06:08:05.026Z,15.10
2023-09-30T06:10:32.485Z,12.82
2023-09-30T06:13:00.811Z,18.15
2023-09-30T06:15:28.183Z,17.55
2023-09-30T06:17:59.152Z,11.40
2023-09-30T06:20:28.890Z,15.70
2023-09-30T06:22:56.427Z,12.70
2023-09-30T06:25:25.637Z,16.98
2023-09-30T06:27:53.273Z,24.98
2023-09-30T06:30:22.152Z,18.25
2023-09-30T06:32:49.638Z,15.93
2023-09-30T06:35:17.211Z,15.32
2023-09-30T06:37:46.631Z,14.85
2023-09-30T06:40:14.258Z,14.52
2023-09-30T06:42:41.991Z,14.45
2023-09-30T06:45:11.081Z,12.68
2023-09-30T06:47:39.408Z,17.08
2023-09-30T06:50:13.418Z,12.98
2023-09-30T06:52:42.586Z,13.68
2023-09-30T06:55:10.322Z,17.40
2023-09-30T06:57:39.129Z,19.55
2023-09-30T07:00:10.984Z,15.60
2023-09-30T07:02:39.431Z,15.73
2023-09-30T07:05:11.196Z,15.77
2023-09-30T07:07:38.647Z,17.92
2023-09-30T07:10:07.053Z,17.80
2023-09-30T07:12:37.031Z,15.15
2023-09-30T07:15:06.346Z,17.45
2023-09-30T07:17:35.257Z,24.27
2023-09-30T07:20:04.011Z,23.02
2023-09-30T07:25:03.330Z,11.88
2023-09-30T07:27:30.596Z,13.50
2023-09-30T07:29:57.786Z,18.08
2023-09-30T07:32:25.022Z,17.75
2023-09-30T07:34:52.866Z,20.00
2023-09-30T07:37:21.652Z,15.05
2023-09-30T07:39:49.038Z,16.98
2023-09-30T07:42:17.960Z,16.35
2023-09-30T07:44:45.220Z,16.70
2023-09-30T07:47:12.416Z,13.20
2023-09-30T07:49:40.003Z,14.05
2023-09-30T07:52:07.094Z,15.75
2023-09-30T07:54:34.266Z,22.30
2023-09-30T07:57:01.679Z,22.35
2023-09-30T07:59:28.786Z,12.70
2023-09-30T08:01:57.089Z,15.88
2023-09-30T08:04:24.466Z,13.35
2023-09-30T08:06:52.262Z,18.45
2023-09-30T08:09:19.874Z,17.42
2023-09-30T08:11:47.101Z,21.25
2023-09-30T08:14:14.206Z,21.55
2023-09-30T08:16:41.582Z,16.88
2023-09-30T08:19:09.765Z,17.40
2023-09-30T08:21:36.901Z,18.98
2023-09-30T08:24:04.639Z,18.27
2023-09-30T08:26:31.802Z,17.77
2023-09-30T08:28:58.942Z,17.75
2023-09-30T08:31:26.432Z,14.73
2023-09-30T08:33:53.672Z,18.70
2023-09-30T08:36:20.910Z,18.95
2023-09-30T08:38:48.543Z,19.33
2023-09-30T08:41:31.542Z,15.45
2023-09-30T08:44:02.717Z,23.10
2023-09-30T08:46:33.364Z,10.65
2023-09-30T08:49:05.349Z,17.83
2023-09-30T08:51:33.657Z,16.00
2023-09-30T08:54:02.736Z,12.93
2023-09-30T08:56:33.027Z,14.18
2023-09-30T08:59:02.115Z,18.67
2023-09-30T09:01:30.839Z,12.93
2023-09-30T09:03:58.486Z,16.88
2023-09-30T09:08:53.918Z,20.73
2023-09-30T09:11:21.213Z,15.35
2023-09-30T09:13:56.955Z,10.68
2023-09-30T09:16:26.061Z,13.80
2023-09-30T09:18:54.414Z,13.77
2023-09-30T09:21:24.690Z,17.83
2023-09-30T09:23:52.984Z,13.73
2023-09-30T09:26:32.828Z,15.77
2023-09-30T09:29:02.356Z,9.43
2023-09-30T09:31:37.950Z,14.75
2023-09-30T09:34:14.695Z,13.60
2023-09-30T09:36:47.174Z,18.13
2023-09-30T09:39:14.765Z,13.90
2023-09-30T09:41:52.631Z,11.82
2023-09-30T09:44:23.635Z,9.63
2023-09-30T09:46:53.433Z,17.00
2023-09-30T09:49:21.618Z,13.40
2023-09-30T09:51:50.523Z,15.88
2023-09-30T09:54:18.421Z,12.95
2023-09-30T09:59:15.039Z,15.05
2023-09-30T10:01:43.379Z,10.95
2023-09-30T10:04:16.477Z,14.20
2023-09-30T10:06:52.172Z,13.13
2023-09-30T10:09:21.312Z,10.40
2023-09-30T10:11:49.067Z,10.48
2023-09-30T10:14:35.079Z,11.52
2023-09-30T10:17:02.850Z,13.43
2023-09-30T10:19:31.824Z,10.40
2023-09-30T10:22:34.822Z,10.95
2023-09-30T10:25:22.587Z,12.40
2023-09-30T10:27:49.736Z,15.80
2023-09-30T10:30:17.857Z,13.07
2023-09-30T10:33:00.746Z,12.48
2023-09-30T10:35:27.931Z,12.75
2023-09-30T10:38:22.634Z,10.57
2023-09-30T10:40:51.863Z,12.77
2023-09-30T10:43:39.870Z,12.27
2023-09-30T10:46:29.033Z,17.63
2023-09-30T10:48:58.695Z,9.80
2023-09-30T10:51:26.166Z,6.28
2023-09-30T10:54:01.038Z,12.00
2023-09-30T10:56:34.778Z,15.35
2023-09-30T10:59:03.635Z,14.70
2023-09-30T11:01:36.035Z,9.73
2023-09-30T11:04:06.544Z,14.18
2023-09-30T11:06:34.745Z,10.13
2023-09-30T11:09:03.629Z,10.48
2023-09-30T11:11:35.643Z,13.27
2023-09-30T11:14:03.540Z,10.70
2023-09-30T11:16:30.722Z,9.35
2023-09-30T11:18:58.197Z,14.15
2023-09-30T11:21:26.107Z,10.45
2023-09-30T11:23:53.392Z,25.02
2023-09-30T11:26:32.767Z,11.82
2023-09-30T11:29:06.975Z,12.02
2023-09-30T11:31:35.296Z,14.27
2023-09-30T11:34:05.330Z,8.75
2023-09-30T11:36:32.699Z,8.25
2023-09-30T11:39:01.283Z,22.42
2023-09-30T11:41:42.373Z,12.80
2023-09-30T11:44:14.468Z,9.90
2023-09-30T11:47:09.631Z,9.82
2023-09-30T11:49:41.605Z,12.52
2023-09-30T11:52:14.229Z,9.27
2023-09-30T11:54:44.558Z,9.93
2023-09-30T11:57:16.694Z,8.13
2023-09-30T11:59:46.344Z,14.35
2023-09-30T12:02:15.952Z,10.32
2023-09-30T12:04:45.116Z,8.95
2023-09-30T12:07:13.482Z,10.43
2023-09-30T12:09:41.525Z,6.90
2023-09-30T12:12:15.434Z,11.95
2023-09-30T12:14:42.674Z,11.05
2023-09-30T12:17:13.540Z,9.63
2023-09-30T12:19:42.708Z,11.25
2023-09-30T12:22:11.809Z,10.02
2023-09-30T12:24:39.249Z,8.73
2023-09-30T12:27:07.176Z,12.93
2023-09-30T12:29:34.358Z,10.93
2023-09-30T12:32:02.318Z,8.00
2023-09-30T12:34:29.838Z,5.72
2023-09-30T12:36:58.100Z,9.45
2023-09-30T12:39:27.709Z,6.65
2023-09-30T12:41:56.188Z,9.57
2023-09-30T12:44:24.219Z,8.38
2023-09-30T12:46:52.379Z,7.97
2023-09-30T12:49:19.964Z,11.20
2023-09-30T12:51:47.499Z,13.95
2023-09-30T12:54:16.093Z,17.33
2023-09-30T12:56:43.552Z,8.60
2023-09-30T12:59:10.841Z,9.88
2023-09-30T13:01:38.575Z,5.70
2023-09-30T13:04:09.447Z,10.07
2023-09-30T13:06:37.484Z,10.07
2023-09-30T13:09:09.904Z,8.25
2023-09-30T13:11:37.749Z,9.48
2023-09-30T13:14:05.882Z,13.57
2023-09-30T13:16:33.251Z,4.55
2023-09-30T13:19:01.101Z,7.95
2023-09-30T13:21:28.643Z,6.18
2023-09-30T13:23:56.213Z,7.57
2023-09-30T13:26:23.318Z,9.75
2023-09-30T13:28:50.420Z,13.75
2023-09-30T13:31:17.985Z,7.97
2023-09-30T13:33:45.291Z,10.85
2023-09-30T13:36:12.526Z,8.02
2023-09-30T13:38:39.634Z,13.20
2023-09-30T13:41:06.866Z,9.88
2023-09-30T13:43:34.025Z,6.47
2023-09-30T13:46:05.098Z,10.15
2023-09-30T13:48:32.374Z,6.70
2023-09-30T13:51:12.575Z,7.57
2023-09-30T13:53:39.967Z,8.93
2023-09-30T13:56:07.907Z,7.00
2023-09-30T13:58:35.715Z,7.65
2023-09-30T14:03:30.951Z,15.77
2023-09-30T14:05:58.268Z,8.50
2023-09-30T14:08:26.387Z,13.48
2023-09-30T14:10:53.534Z,16.77
2023-09-30T14:13:20.642Z,9.23
2023-09-30T14:15:50.596Z,18.08
2023-09-30T14:18:18.108Z,7.07
2023-09-30T14:20:45.216Z,5.72
2023-09-30T14:23:12.732Z,7.85
2023-09-30T14:25:40.757Z,9.93
2023-09-30T14:28:07.934Z,6.40
2023-09-30T14:30:35.204Z,11.20
2023-09-30T14:33:02.689Z,5.68
2023-09-30T14:35:30.281Z,7.32
2023-09-30T14:37:58.408Z,10.30
2023-09-30T14:40:25.641Z,10.13
2023-09-30T14:42:53.000Z,8.90
2023-09-30T14:45:21.754Z,5.00
2023-09-30T14:47:49.256Z,8.68
2023-09-30T14:50:17.129Z,12.15
2023-09-30T14:55:11.399Z,6.10
2023-09-30T14:57:38.696Z,11.13
2023-09-30T15:00:07.853Z,6.28
2023-09-30T15:02:35.310Z,7.93
2023-09-30T15:05:02.522Z,10.23
2023-09-30T15:07:29.603Z,6.57
2023-09-30T15:09:56.814Z,9.98
2023-09-30T15:12:24.345Z,10.88
2023-09-30T15:14:52.857Z,6.65
2023-09-30T15:17:19.968Z,3.78
2023-09-30T15:19:47.204Z,6.75
2023-09-30T15:22:15.414Z,5.05
2023-09-30T15:24:42.907Z,5.15
2023-09-30T15:27:10.144Z,13.18
2023-09-30T15:29:37.294Z,4.82
2023-09-30T15:32:06.016Z,7.88
2023-09-30T15:34:33.294Z,8.55
2023-09-30T15:37:00.769Z,6.45
2023-09-30T15:39:27.866Z,3.85
2023-09-30T15:41:54.988Z,7.85
2023-09-30T15:44:22.075Z,7.38
2023-09-30T15:46:49.839Z,8.43
2023-09-30T15:51:44.065Z,5.60
2023-09-30T15:54:11.248Z,6.15
2023-09-30T15:56:53.918Z,7.25
2023-09-30T15:59:23.361Z,6.07
2023-09-30T16:01:50.967Z,5.53
2023-09-30T16:04:18.485Z,8.07
2023-09-30T16:06:45.731Z,14.88
2023-09-30T16:09:12.966Z,14.32
2023-09-30T16:11:40.088Z,4.75
2023-09-30T16:14:07.853Z,6.93
2023-09-30T16:16:35.487Z,7.82
2023-09-30T16:19:02.739Z,9.13
2023-09-30T16:21:29.899Z,7.45
2023-09-30T16:23:57.242Z,8.88
2023-09-30T16:26:24.455Z,7.43
2023-09-30T16:28:51.561Z,8.57
2023-09-30T16:31:18.747Z,5.55
2023-09-30T16:33:46.157Z,9.00
2023-09-30T16:36:13.271Z,7.20
2023-09-30T16:38:40.350Z,10.63
2023-09-30T16:41:07.552Z,10.82
2023-09-30T16:43:35.386Z,5.80
2023-09-30T16:48:29.536Z,6.68
2023-09-30T16:50:56.627Z,8.70
2023-09-30T16:53:24.212Z,8.02
2023-09-30T16:55:52.568Z,9.82
2023-09-30T16:58:19.758Z,9.23
2023-09-30T17:00:47.987Z,6.18
2023-09-30T17:03:15.320Z,8.82
2023-09-30T17:05:43.978Z,11.02
2023-09-30T17:08:12.881Z,8.43
2023-09-30T17:10:40.350Z,4.18
2023-09-30T17:13:07.984Z,8.15
2023-09-30T17:15:36.980Z,10.07
2023-09-30T17:18:04.882Z,12.40
2023-09-30T17:22:59.315Z,7.53
2023-09-30T17:25:28.777Z,8.75
2023-09-30T17:27:55.903Z,6.93
2023-09-30T17:30:38.415Z,5.43
2023-09-30T17:33:07.628Z,8.20
2023-09-30T17:35:39.756Z,13.45
2023-09-30T17:38:06.949Z,10.85
2023-09-30T17:40:34.085Z,6.43
2023-09-30T17:43:01.483Z,10.90
2023-09-30T17:45:28.788Z,7.15
2023-09-30T17:47:56.056Z,11.88
2023-09-30T17:50:23.158Z,9.82
2023-09-30T17:52:51.735Z,11.03
2023-09-30T17:55:18.833Z,7.20
2023-09-30T17:57:46.036Z,8.32
2023-09-30T18:00:14.552Z,10.63
2023-09-30T18:02:41.800Z,10.80
2023-09-30T18:05:09.465Z,8.88
2023-09-30T18:07:36.627Z,10.00
2023-09-30T18:10:04.309Z,6.45
2023-09-30T18:12:32.548Z,12.80
2023-09-30T18:15:00.302Z,8.32
2023-09-30T18:17:27.498Z,10.10
2023-09-30T18:19:54.740Z,10.95
2023-09-30T18:22:21.884Z,8.02
2023-09-30T18:24:49.060Z,8.23
2023-09-30T18:27:16.248Z,6.10
2023-09-30T18:29:44.452Z,9.02
2023-09-30T18:32:11.883Z,9.60
2023-09-30T18:34:39.115Z,7.07
2023-09-30T18:37:06.362Z,8.02
2023-09-30T18:39:33.588Z,11.73
2023-09-30T18:42:00.866Z,4.95
2023-09-30T18:44:28.015Z,7.63
2023-09-30T18:46:55.261Z,7.72
2023-09-30T18:49:22.932Z,8.27
2023-09-30T18:51:51.486Z,11.50
2023-09-30T18:54:19.209Z,9.70
2023-09-30T18:56:47.455Z,9.32
2023-09-30T18:59:21.407Z,10.82
2023-09-30T19:01:49.934Z,6.00
2023-09-30T19:04:18.005Z,15.68
2023-09-30T19:06:48.868Z,8.35
2023-09-30T19:09:17.609Z,8.70
2023-09-30T19:11:46.343Z,9.13
2023-09-30T19:14:14.793Z,8.15
2023-09-30T19:16:44.350Z,8.80
2023-09-30T19:19:12.154Z,11.13
2023-09-30T19:21:39.499Z,6.20
2023-09-30T19:24:06.849Z,7.25
2023-09-30T19:26:34.007Z,8.02
2023-09-30T19:29:02.561Z,9.25
2023-09-30T19:31:30.109Z,5.28
2023-09-30T19:33:57.576Z,5.68
2023-09-30T19:36:25.429Z,12.00
2023-09-30T19:38:53.028Z,7.97
2023-09-30T19:41:22.367Z,8.80
2023-09-30T19:43:49.669Z,7.97
2023-09-30T19:46:17.195Z,11.57
2023-09-30T19:48:47.344Z,9.52
2023-09-30T19:51:22.955Z,10.57
2023-09-30T19:53:51.468Z,8.43
2023-09-30T19:56:18.751Z,11.23
2023-09-30T19:58:46.126Z,9.75
2023-09-30T20:01:13.291Z,9.40
2023-09-30T20:03:40.558Z,8.15
2023-09-30T20:06:21.943Z,11.68
2023-09-30T20:08:50.351Z,7.65
2023-09-30T20:11:18.458Z,14.73
2023-09-30T20:13:47.137Z,15.93
2023-09-30T20:16:15.258Z,19.52
2023-09-30T20:18:42.936Z,15.05
2023-09-30T20:21:10.651Z,14.95
2023-09-30T20:23:38.269Z,14.15
2023-09-30T20:26:07.496Z,14.65
2023-09-30T20:28:34.601Z,14.95
2023-09-30T20:31:04.122Z,15.50
2023-09-30T20:33:31.317Z,17.02
2023-09-30T20:35:58.474Z,18.00
2023-09-30T20:38:25.602Z,18.15
2023-09-30T20:40:52.811Z,18.10
2023-09-30T20:43:20.401Z,14.85
2023-09-30T20:45:47.659Z,17.92
2023-09-30T20:48:14.803Z,13.80
2023-09-30T20:50:41.876Z,17.30
2023-09-30T20:53:09.070Z,17.50
2023-09-30T20:55:36.213Z,10.68
2023-09-30T20:58:03.550Z,15.02
2023-09-30T21:00:31.173Z,9.90
2023-09-30T21:02:58.448Z,17.30
2023-09-30T21:05:25.886Z,15.85
2023-09-30T21:07:53.089Z,14.68
2023-09-30T21:10:20.211Z,27.42
2023-09-30T21:12:47.375Z,16.23
2023-09-30T21:15:14.532Z,13.10
2023-09-30T21:17:41.695Z,17.15
2023-09-30T21:20:09.457Z,18.67
2023-09-30T21:22:36.567Z,18.95
2023-09-30T21:25:04.074Z,20.07
2023-09-30T21:27:31.349Z,22.73
2023-09-30T21:29:58.459Z,20.63
2023-09-30T21:32:25.537Z,19.70
2023-09-30T21:34:52.934Z,17.25
2023-09-30T21:37:20.142Z,14.80
2023-09-30T21:39:47.606Z,16.90
2023-09-30T21:42:16.572Z,17.23
2023-09-30T21:47:10.812Z,16.55
2023-09-30T21:49:37.976Z,19.48
2023-09-30T21:52:05.204Z,15.50
2023-09-30T21:54:32.338Z,16.10
2023-09-30T21:56:59.455Z,15.67
2023-09-30T21:59:26.540Z,19.77
2023-09-30T22:01:53.864Z,19.85
2023-09-30T22:04:21.056Z,18.17
2023-09-30T22:06:48.388Z,20.33
2023-09-30T22:09:16.680Z,20.13
2023-09-30T22:11:43.862Z,16.55
2023-09-30T22:14:11.162Z,16.63
2023-09-30T22:16:39.336Z,22.40
2023-09-30T22:19:07.216Z,19.15
2023-09-30T22:21:34.317Z,20.50
2023-09-30T22:24:01.397Z,21.43
2023-09-30T22:26:28.758Z,16.33
2023-09-30T22:28:55.917Z,17.58
2023-09-30T22:31:23.101Z,18.15
2023-09-30T22:33:50.591Z,16.08
2023-09-30T22:36:17.759Z,14.48
2023-09-30T22:38:45.014Z,12.82
2023-09-30T22:41:12.330Z,11.05
2023-09-30T22:43:39.790Z,12.68
2023-09-30T22:46:07.000Z,22.83
2023-09-30T22:48:34.221Z,13.85
2023-09-30T22:51:02.826Z,15.68
2023-09-30T22:53:31.172Z,13.93
2023-09-30T22:55:58.312Z,15.90
2023-09-30T22:58:25.473Z,13.23
2023-09-30T23:00:52.719Z,11.30
2023-09-30T23:03:19.950Z,16.48
2023-09-30T23:05:49.848Z,11.20
2023-09-30T23:08:17.142Z,13.52
2023-09-30T23:10:44.299Z,8.32
2023-09-30T23:13:11.621Z,16.08
2023-09-30T23:15:39.788Z,13.88
2023-09-30T23:18:07.293Z,14.35
2023-09-30T23:20:34.508Z,15.32
2023-09-30T23:23:01.724Z,15.77
2023-09-30T23:25:35.850Z,14.57
2023-09-30T23:28:04.069Z,15.77
2023-09-30T23:32:59.245Z,12.75
2023-09-30T23:35:30.558Z,12.68
2023-09-30T23:38:02.621Z,12.23
2023-09-30T23:40:33.677Z,19.85
2023-09-30T23:43:01.980Z,14.82
2023-09-30T23:45:32.496Z,13.65
2023-09-30T23:48:00.399Z,13.13
2023-09-30T23:53:00.604Z,14.82
2023-09-30T23:55:28.956Z,11.15
2023-09-30T23:57:56.785Z,13.98
